Time;durP1;ratioP1;P1;durP2;ratioP2;P2;SDS_P1;SDS_P2;PMS_P1;PMS_P2;Temp;Humidity;BMP_temperature;BMP_pressure;BME280_temperature;BME280_humidity;BME280_pressure;Samples;Min_cycle;Max_cycle;Signal;HPM_P1;HPM_P2
2022/08/06 00:00:38;;;;;;;6.25;2.10;;;;;;;17.66;50.98;102474.81;5085474;28;20020;-62
2022/08/06 00:03:03;;;;;;;5.50;2.08;;;;;;;17.67;51.10;102487.75;5093494;28;20028;-62
2022/08/06 00:05:29;;;;;;;5.13;2.08;;;;;;;17.60;51.23;102483.44;5091797;28;20044;-62
2022/08/06 00:07:56;;;;;;;6.90;1.75;;;;;;;17.59;51.21;102490.16;5092901;28;20116;-62
2022/08/06 00:10:22;;;;;;;5.72;1.88;;;;;;;17.57;51.38;102489.59;5092242;28;20059;-62
2022/08/06 00:12:48;;;;;;;6.70;1.88;;;;;;;17.54;51.44;102492.91;5093196;28;20471;-62
2022/08/06 00:15:14;;;;;;;4.45;2.00;;;;;;;17.46;51.64;102490.56;5091807;28;20035;-62
2022/08/06 00:17:41;;;;;;;7.93;2.20;;;;;;;17.41;51.64;102485.72;5090129;28;20028;-62
2022/08/06 00:20:07;;;;;;;9.27;2.30;;;;;;;17.42;51.60;102491.06;5084160;28;20156;-62
2022/08/06 00:22:32;;;;;;;6.55;2.38;;;;;;;17.41;51.87;102495.00;5091673;28;20165;-62
2022/08/06 00:24:57;;;;;;;6.18;1.95;;;;;;;17.37;51.79;102490.13;5093052;28;20020;-62
2022/08/06 00:27:23;;;;;;;8.35;2.17;;;;;;;17.36;51.62;102499.66;5093127;28;20021;-62
2022/08/06 00:29:49;;;;;;;13.82;2.40;;;;;;;17.38;51.69;102505.88;5085040;28;20086;-62
2022/08/06 00:32:14;;;;;;;8.90;2.33;;;;;;;17.27;51.69;102507.69;5090128;28;20050;-62
2022/08/06 00:34:40;;;;;;;6.78;2.45;;;;;;;17.28;51.62;102512.19;5093087;28;20028;-62
2022/08/06 00:37:05;;;;;;;6.53;2.55;;;;;;;17.27;51.75;102510.50;5091050;28;20032;-62
2022/08/06 00:39:30;;;;;;;7.28;2.60;;;;;;;17.21;52.06;102507.84;5091519;28;20054;-62
2022/08/06 00:41:56;;;;;;;5.13;2.25;;;;;;;17.16;52.14;102503.88;5092450;28;20059;-62
2022/08/06 00:44:21;;;;;;;5.32;2.40;;;;;;;17.16;52.08;102505.84;5092034;28;20104;-62
2022/08/06 00:46:47;;;;;;;5.35;2.30;;;;;;;17.12;52.38;102501.84;5091619;28;20035;-62
2022/08/06 00:49:12;;;;;;;8.90;2.83;;;;;;;17.07;52.26;102508.22;5090039;28;20112;-62
2022/08/06 00:51:39;;;;;;;7.00;2.55;;;;;;;17.10;52.23;102515.28;5091759;28;20085;-62
2022/08/06 00:54:04;;;;;;;4.38;2.17;;;;;;;16.98;52.62;102514.50;5091529;28;20032;-62
2022/08/06 00:56:30;;;;;;;8.60;2.42;;;;;;;17.01;51.99;102514.00;5091854;28;20078;-62
2022/08/06 00:58:55;;;;;;;9.95;2.65;;;;;;;17.00;52.34;102520.72;5078183;28;20028;-62
2022/08/06 01:01:20;;;;;;;8.93;2.33;;;;;;;16.97;52.69;102522.06;5072073;28;20044;-62
2022/08/06 01:03:46;;;;;;;8.20;2.38;;;;;;;16.93;52.82;102521.75;5073605;28;20020;-62
2022/08/06 01:06:11;;;;;;;6.20;2.70;;;;;;;16.88;53.21;102518.84;5091977;28;20386;-62
2022/08/06 01:08:36;;;;;;;5.95;2.83;;;;;;;16.86;53.22;102531.47;5087299;28;20466;-62
2022/08/06 01:11:02;;;;;;;5.10;2.42;;;;;;;16.85;52.92;102536.19;5089431;28;20031;-62
2022/08/06 01:13:27;;;;;;;5.75;2.95;;;;;;;16.85;53.16;102538.16;5088766;28;20387;-62
2022/08/06 01:16:12;;;;;;;6.93;2.67;;;;;;;16.81;53.17;102543.41;5084362;28;20028;-62
2022/08/06 01:18:50;;;;;;;6.72;2.72;;;;;;;16.82;52.81;102547.94;5079471;28;20031;-62
2022/08/06 01:21:44;;;;;;;7.55;2.65;;;;;;;16.81;53.06;102546.22;5091113;28;20074;-62
2022/08/06 01:24:30;;;;;;;10.15;2.85;;;;;;;16.77;53.15;102547.81;5078113;28;20078;-63
2022/08/06 01:27:20;;;;;;;6.95;2.30;;;;;;;16.85;52.72;102546.56;5072207;28;20064;-62
2022/08/06 01:29:52;;;;;;;9.32;2.90;;;;;;;16.72;53.30;102544.91;5074256;28;20028;-62
2022/08/06 01:32:29;;;;;;;5.63;2.38;;;;;;;16.66;53.51;102552.41;5074278;28;20041;-62
2022/08/06 01:35:01;;;;;;;8.38;2.42;;;;;;;16.70;53.46;102544.31;5072168;28;20028;-62
2022/08/06 01:37:35;;;;;;;5.50;2.17;;;;;;;16.72;53.81;102549.66;5079516;28;20036;-62
2022/08/06 01:40:05;;;;;;;8.02;2.53;;;;;;;16.63;53.39;102546.44;5087998;28;20383;-62
2022/08/06 01:42:32;;;;;;;7.35;2.50;;;;;;;16.60;53.52;102544.97;5091862;28;20156;-62
2022/08/06 01:45:01;;;;;;;4.95;2.35;;;;;;;16.57;53.75;102544.63;5087382;28;20024;-62
2022/08/06 01:47:29;;;;;;;7.20;2.53;;;;;;;16.55;53.73;102538.44;5091383;28;20025;-62
2022/08/06 01:49:58;;;;;;;8.02;2.58;;;;;;;16.47;53.97;102550.06;5090601;28;20052;-62
2022/08/06 01:52:24;;;;;;;7.65;2.60;;;;;;;16.43;54.05;102547.75;5091584;28;20038;-62
2022/08/06 01:54:52;;;;;;;8.40;2.47;;;;;;;16.39;54.11;102543.75;5089934;28;20036;-62
2022/08/06 01:57:20;;;;;;;8.30;2.20;;;;;;;16.44;54.17;102546.66;5091904;28;20039;-62
2022/08/06 01:59:50;;;;;;;6.88;2.28;;;;;;;16.43;54.06;102550.56;5091076;28;20020;-62
2022/08/06 02:02:20;;;;;;;8.85;2.40;;;;;;;16.35;54.57;102547.31;5091973;28;20047;-62
2022/08/06 02:04:49;;;;;;;7.25;2.10;;;;;;;16.32;54.54;102553.41;5090868;28;20031;-62
2022/08/06 02:07:17;;;;;;;7.82;2.20;;;;;;;16.26;54.44;102549.66;5090970;28;20741;-62
2022/08/06 02:09:45;;;;;;;6.82;2.58;;;;;;;16.27;54.64;102553.28;5089610;28;20126;-62
2022/08/06 02:12:17;;;;;;;6.70;2.47;;;;;;;16.24;54.73;102560.28;5091651;28;20036;-62
2022/08/06 02:14:48;;;;;;;5.50;2.30;;;;;;;16.29;54.42;102549.16;5089020;28;20110;-62
2022/08/06 02:17:17;;;;;;;11.03;2.03;;;;;;;16.23;54.43;102552.97;5091701;28;20486;-62
2022/08/06 02:19:48;;;;;;;6.50;2.10;;;;;;;16.23;54.72;102558.56;5090570;28;20363;-62
2022/08/06 02:22:15;;;;;;;8.57;2.33;;;;;;;16.19;54.76;102555.41;5081801;28;20032;-62
2022/08/06 02:24:41;;;;;;;6.95;2.50;;;;;;;16.18;54.56;102556.50;5079304;28;20032;-62
2022/08/06 02:27:08;;;;;;;5.97;2.20;;;;;;;16.11;54.76;102560.53;5090221;28;20032;-62
2022/08/06 02:29:34;;;;;;;6.07;2.10;;;;;;;16.12;54.95;102556.66;5090879;28;20032;-62
2022/08/06 02:32:00;;;;;;;4.97;2.15;;;;;;;16.10;55.05;102561.66;5079237;28;20487;-62
2022/08/06 02:34:25;;;;;;;8.30;2.67;;;;;;;16.06;55.05;102555.69;5088358;28;20032;-62
2022/08/06 02:37:02;;;;;;;8.00;2.47;;;;;;;16.06;55.17;102558.50;5090042;28;20031;-62
2022/08/06 02:39:43;;;;;;;6.60;2.30;;;;;;;16.07;55.10;102556.53;5093976;28;20387;-62
2022/08/06 02:42:17;;;;;;;7.00;2.58;;;;;;;15.98;55.61;102555.25;5092126;28;20048;-61
2022/08/06 02:44:52;;;;;;;5.93;2.45;;;;;;;16.03;55.41;102550.59;5094604;28;20528;-61
2022/08/06 02:47:22;;;;;;;5.35;2.42;;;;;;;16.00;55.66;102555.84;5093669;28;20114;-61
2022/08/06 02:49:52;;;;;;;7.95;2.47;;;;;;;15.87;56.06;102555.00;5090817;28;20032;-61
2022/08/06 02:52:25;;;;;;;7.97;2.22;;;;;;;15.88;56.12;102561.50;5094042;28;20024;-61
2022/08/06 02:55:00;;;;;;;6.35;2.50;;;;;;;15.87;55.80;102557.81;5090575;28;20032;-61
2022/08/06 02:57:33;;;;;;;5.72;2.45;;;;;;;15.84;55.99;102555.53;5091972;28;20040;-61
2022/08/06 03:00:04;;;;;;;6.32;2.47;;;;;;;15.81;56.08;102561.63;5093715;28;20021;-61
2022/08/06 03:02:32;;;;;;;7.93;2.58;;;;;;;15.76;56.10;102564.31;5093613;28;20062;-61
2022/08/06 03:05:01;;;;;;;4.97;2.30;;;;;;;15.75;56.29;102559.78;5092435;28;20048;-61
2022/08/06 03:07:29;;;;;;;5.55;2.50;;;;;;;15.75;56.13;102557.00;5086381;28;20123;-61
2022/08/06 03:09:57;;;;;;;5.00;2.38;;;;;;;15.71;56.51;102562.22;5090714;28;20032;-61
2022/08/06 03:12:24;;;;;;;5.57;2.35;;;;;;;15.65;56.61;102565.19;5074268;28;20123;-61
2022/08/06 03:14:53;;;;;;;4.93;2.67;;;;;;;15.63;56.44;102567.31;5074265;28;20128;-61
2022/08/06 03:17:20;;;;;;;6.43;2.80;;;;;;;15.63;56.37;102565.38;5073792;28;20032;-61
2022/08/06 03:19:46;;;;;;;4.90;2.92;;;;;;;15.65;56.45;102567.97;5077013;28;20027;-61
2022/08/06 03:22:14;;;;;;;5.95;2.42;;;;;;;15.59;56.89;102571.72;5091875;28;20024;-61
2022/08/06 03:24:42;;;;;;;5.05;2.50;;;;;;;15.55;57.11;102570.50;5091279;28;20030;-61
2022/08/06 03:27:10;;;;;;;8.75;2.90;;;;;;;15.56;56.59;102570.28;5091062;28;20040;-61
2022/08/06 03:29:38;;;;;;;8.23;3.00;;;;;;;15.45;56.60;102580.38;5094466;28;20453;-61
2022/08/06 03:32:04;;;;;;;5.50;2.45;;;;;;;15.46;56.51;102575.63;5093632;28;20063;-61
2022/08/06 03:34:32;;;;;;;4.65;2.88;;;;;;;15.46;56.46;102575.63;5093180;28;20032;-61
2022/08/06 03:37:00;;;;;;;5.68;2.85;;;;;;;15.41;56.60;102576.38;5092530;28;20042;-61
2022/08/06 03:39:26;;;;;;;5.63;2.78;;;;;;;15.43;56.89;102578.91;5090525;28;20032;-61
2022/08/06 03:41:52;;;;;;;7.80;2.95;;;;;;;15.43;56.93;102587.28;5093997;28;20487;-61
2022/08/06 03:44:18;;;;;;;5.97;3.08;;;;;;;15.38;57.08;102588.03;5092979;28;20028;-61
2022/08/06 03:46:48;;;;;;;7.55;3.08;;;;;;;15.39;56.99;102589.72;5091833;28;20086;-61
2022/08/06 03:49:40;;;;;;;4.00;2.65;;;;;;;15.46;56.61;102584.88;5090112;28;20534;-61
2022/08/06 03:52:06;;;;;;;7.95;2.75;;;;;;;15.36;56.90;102589.38;5089285;28;20028;-61
2022/08/06 03:54:36;;;;;;;7.93;2.83;;;;;;;15.33;56.64;102585.13;5093925;28;20020;-61
2022/08/06 03:57:05;;;;;;;5.97;3.05;;;;;;;15.34;56.92;102597.16;5091853;28;20054;-62
2022/08/06 03:59:33;;;;;;;6.78;3.20;;;;;;;15.34;56.83;102597.16;5092961;28;20028;-61
2022/08/06 04:02:00;;;;;;;9.20;3.30;;;;;;;15.37;56.89;102600.31;5089843;28;20040;-61
2022/08/06 04:04:26;;;;;;;7.72;3.28;;;;;;;15.33;57.06;102601.91;5082408;28;20039;-61
2022/08/06 04:06:54;;;;;;;4.57;3.28;;;;;;;15.36;57.01;102601.41;5091267;28;20036;-62
2022/08/06 04:09:20;;;;;;;7.90;3.10;;;;;;;15.37;56.85;102608.72;5092380;28;20032;-61
2022/08/06 04:11:47;;;;;;;7.88;3.05;;;;;;;15.35;56.89;102610.91;5093436;28;20028;-62
2022/08/06 04:14:13;;;;;;;6.03;3.38;;;;;;;15.35;56.90;102610.03;5090805;28;20395;-62
2022/08/06 04:16:39;;;;;;;6.63;2.90;;;;;;;15.29;56.86;102611.88;5091254;28;20020;-62
2022/08/06 04:19:07;;;;;;;7.88;2.95;;;;;;;15.25;56.70;102610.66;5077886;28;20029;-62
2022/08/06 04:21:32;;;;;;;5.22;2.88;;;;;;;15.27;56.71;102614.06;5089456;28;20024;-62
2022/08/06 04:23:58;;;;;;;7.10;3.10;;;;;;;15.22;56.88;102620.38;5093072;28;20031;-61
2022/08/06 04:26:24;;;;;;;7.85;2.95;;;;;;;15.20;57.11;102621.69;5091978;28;20053;-62
2022/08/06 04:28:53;;;;;;;10.07;3.55;;;;;;;15.19;56.83;102629.25;5088595;28;20110;-61
2022/08/06 04:31:20;;;;;;;7.45;3.08;;;;;;;15.18;57.03;102629.50;5090465;28;20036;-61
2022/08/06 04:33:47;;;;;;;8.57;2.95;;;;;;;15.19;56.87;102617.22;5092957;28;20024;-62
2022/08/06 04:36:13;;;;;;;3.78;2.92;;;;;;;15.10;57.30;102619.50;5092047;28;20089;-62
2022/08/06 04:38:39;;;;;;;5.97;2.72;;;;;;;15.17;57.10;102622.22;5086967;28;20020;-62
2022/08/06 04:41:05;;;;;;;4.63;2.78;;;;;;;15.13;57.20;102627.44;5076381;28;20032;-62
2022/08/06 04:43:31;;;;;;;5.93;2.95;;;;;;;15.13;57.45;102624.63;5091849;28;20552;-62
2022/08/06 04:45:57;;;;;;;5.07;3.08;;;;;;;15.10;57.53;102622.31;5091688;28;20090;-62
2022/08/06 04:48:24;;;;;;;6.07;3.38;;;;;;;15.10;57.65;102624.25;5088421;28;20036;-62
2022/08/06 04:50:49;;;;;;;8.48;3.25;;;;;;;15.12;57.64;102628.50;5092742;28;20466;-62
2022/08/06 04:53:18;;;;;;;6.38;2.70;;;;;;;15.15;57.53;102632.78;5090776;28;20081;-62
2022/08/06 04:55:44;;;;;;;6.40;2.85;;;;;;;15.10;57.42;102635.44;5089537;28;20024;-61
2022/08/06 04:58:12;;;;;;;7.95;3.42;;;;;;;15.07;57.99;102641.50;5088372;28;20028;-61
2022/08/06 05:00:42;;;;;;;6.47;3.75;;;;;;;15.06;57.62;102646.25;5082891;28;20423;-62
2022/08/06 05:03:08;;;;;;;6.80;3.30;;;;;;;15.11;57.94;102646.38;5086049;28;20097;-61
2022/08/06 05:05:41;;;;;;;4.97;2.85;;;;;;;15.07;57.92;102647.97;5090008;28;20085;-61
2022/08/06 05:08:09;;;;;;;5.95;2.90;;;;;;;15.05;57.98;102641.78;5090263;28;20265;-61
2022/08/06 05:10:51;;;;;;;6.75;3.05;;;;;;;15.11;57.93;102645.53;5084699;28;20067;-61
2022/08/06 05:13:20;;;;;;;6.53;3.25;;;;;;;15.12;58.27;102648.06;5088721;28;20066;-61
2022/08/06 05:15:51;;;;;;;11.07;4.15;;;;;;;15.07;58.35;102641.50;5086940;28;20027;-62
2022/08/06 05:18:23;;;;;;;5.50;3.55;;;;;;;15.09;58.55;102645.78;5088386;28;20031;-62
2022/08/06 05:20:49;;;;;;;;;;;;;;;15.42;56.47;102649.97;5088964;28;20032;-61
2022/08/06 05:23:22;;;;;;;5.68;3.33;;;;;;;15.22;58.41;102658.69;5086945;28;19962;-61
2022/08/06 05:25:49;;;;;;;9.30;3.97;;;;;;;15.16;58.93;102656.84;5090259;28;20064;-61
2022/08/06 05:28:14;;;;;;;5.20;3.78;;;;;;;15.18;58.75;102657.47;5090755;28;20028;-60
2022/08/06 05:30:45;;;;;;;6.20;3.88;;;;;;;15.20;59.09;102663.66;5088067;28;20040;-60
2022/08/06 05:33:11;;;;;;;12.63;4.25;;;;;;;15.20;58.79;102658.91;5090784;28;20044;-62
2022/08/06 05:35:36;;;;;;;8.15;3.53;;;;;;;15.30;58.98;102663.94;5089206;28;20061;-61
2022/08/06 05:38:01;;;;;;;9.30;3.88;;;;;;;15.29;59.06;102673.44;5091193;28;20429;-62
2022/08/06 05:40:33;;;;;;;10.75;4.35;;;;;;;15.34;58.92;102670.75;5089881;28;20028;-61
2022/08/06 05:42:59;;;;;;;6.97;3.60;;;;;;;15.38;59.34;102676.72;5090062;28;20043;-61
2022/08/06 05:45:24;;;;;;;11.88;4.05;;;;;;;15.40;59.13;102669.78;5090126;28;20020;-62
2022/08/06 05:47:49;;;;;;;6.80;4.07;;;;;;;15.45;59.43;102667.13;5090540;28;20028;-63
2022/08/06 05:50:18;;;;;;;8.45;3.97;;;;;;;15.48;59.16;102665.75;5086713;28;20475;-62
2022/08/06 05:52:56;;;;;;;8.85;4.22;;;;;;;15.53;59.00;102676.25;5083775;28;20032;-63
2022/08/06 05:55:30;;;;;;;7.82;3.72;;;;;;;15.62;59.31;102672.00;5088530;28;20123;-61
2022/08/06 05:58:01;;;;;;;8.18;4.15;;;;;;;15.58;59.66;102674.44;5084905;28;20506;-60
2022/08/06 06:00:30;;;;;;;9.35;3.60;;;;;;;15.60;59.74;102668.56;5086372;28;20036;-61
2022/08/06 06:02:58;;;;;;;7.78;4.00;;;;;;;15.62;59.74;102680.41;5086236;28;20025;-61
2022/08/06 06:05:25;;;;;;;10.13;3.60;;;;;;;15.66;59.79;102684.44;5091660;28;20069;-61
2022/08/06 06:07:52;;;;;;;11.18;4.03;;;;;;;15.73;59.73;102676.78;5091095;28;20035;-61
2022/08/06 06:10:18;;;;;;;11.43;3.67;;;;;;;15.74;59.95;102678.47;5091061;28;20036;-63
2022/08/06 06:12:44;;;;;;;7.60;3.83;;;;;;;15.77;60.14;102680.81;5092978;28;20379;-62
2022/08/06 06:15:12;;;;;;;13.23;4.68;;;;;;;15.87;59.77;102686.63;5095681;28;20016;-62
2022/08/06 06:18:02;;;;;;;10.65;3.92;;;;;;;15.98;59.46;102687.72;5079247;28;20040;-62
2022/08/06 06:20:32;;;;;;;12.93;4.00;;;;;;;16.00;60.74;102690.28;5084844;28;20040;-62
2022/08/06 06:23:08;;;;;;;8.50;3.60;;;;;;;16.02;60.20;102682.47;5093689;28;20039;-62
2022/08/06 06:25:43;;;;;;;8.90;3.47;;;;;;;16.17;59.57;102680.03;5088079;28;20456;-62
2022/08/06 06:28:20;;;;;;;7.85;3.60;;;;;;;16.21;60.23;102686.84;5094534;28;20458;-62
2022/08/06 06:30:56;;;;;;;6.43;3.05;;;;;;;16.30;59.91;102682.56;5095230;28;20031;-62
2022/08/06 06:33:54;;;;;;;7.53;3.60;;;;;;;16.38;59.68;102684.13;5095177;28;20111;-62
2022/08/06 06:36:51;;;;;;;4.55;1.95;;;;;;;16.90;60.70;102689.72;5092020;28;20101;-63
2022/08/06 06:39:55;;;;;;;2.38;1.67;;;;;;;17.29;59.64;102693.53;5090397;28;20540;-63
2022/08/06 06:42:29;;;;;;;3.60;1.52;;;;;;;17.72;58.73;102693.94;5079602;28;20044;-64
2022/08/06 06:45:21;;;;;;;4.57;1.60;;;;;;;17.97;58.12;102699.16;5093842;28;20387;-63
2022/08/06 06:48:07;;;;;;;6.10;1.80;;;;;;;18.20;57.07;102698.06;5092310;28;20044;-64
2022/08/06 06:50:39;;;;;;;6.75;1.80;;;;;;;18.39;56.23;102702.25;5093652;28;20047;-63
2022/08/06 06:53:05;;;;;;;4.05;1.20;;;;;;;18.50;55.97;102701.28;5091309;28;20152;-63
2022/08/06 06:55:44;;;;;;;4.95;1.77;;;;;;;18.54;55.63;102702.44;5091821;28;20118;-64
2022/08/06 06:58:25;;;;;;;8.15;1.60;;;;;;;18.65;55.55;102703.44;5072671;28;20028;-65
2022/08/06 07:00:53;;;;;;;5.03;1.65;;;;;;;18.76;54.86;102704.44;5090014;28;20028;-64
2022/08/06 07:03:20;;;;;;;3.65;1.38;;;;;;;18.88;54.73;102705.16;5091159;28;20111;-64
2022/08/06 07:05:48;;;;;;;4.15;1.67;;;;;;;18.94;54.10;102697.59;5092671;28;20095;-64
2022/08/06 07:08:16;;;;;;;4.88;1.42;;;;;;;18.95;54.32;102700.16;5093644;28;20089;-64
2022/08/06 07:10:43;;;;;;;4.93;1.13;;;;;;;19.05;53.85;102699.41;5088345;28;20036;-64
2022/08/06 07:13:10;;;;;;;3.63;1.33;;;;;;;19.09;53.44;102700.56;5090207;28;20036;-64
2022/08/06 07:15:37;;;;;;;4.60;1.30;;;;;;;19.20;53.58;102702.38;5092270;28;20016;-63
2022/08/06 07:18:03;;;;;;;4.50;1.17;;;;;;;19.24;53.21;102712.00;5088102;28;20024;-64
2022/08/06 07:20:31;;;;;;;3.42;1.10;;;;;;;19.14;52.67;102706.28;5081790;28;20028;-63
2022/08/06 07:23:06;;;;;;;2.85;1.23;;;;;;;19.26;52.65;102718.22;5087164;28;20036;-64
2022/08/06 07:25:37;;;;;;;3.35;1.10;;;;;;;19.31;52.14;102714.59;5089183;28;20027;-63
2022/08/06 07:28:03;;;;;;;2.22;1.23;;;;;;;19.30;52.11;102710.94;5093168;28;20052;-64
2022/08/06 07:30:29;;;;;;;5.07;1.00;;;;;;;19.41;53.45;102719.47;5087534;28;20024;-64
2022/08/06 07:32:55;;;;;;;4.78;1.10;;;;;;;19.36;52.41;102723.09;5085982;28;20095;-65
2022/08/06 07:35:20;;;;;;;4.18;1.20;;;;;;;19.50;53.68;102718.72;5085095;28;20471;-63
2022/08/06 07:37:53;;;;;;;4.00;1.20;;;;;;;19.57;52.69;102732.56;5084894;28;20059;-64
2022/08/06 07:40:24;;;;;;;4.80;1.05;;;;;;;19.62;52.08;102724.22;5088931;28;20032;-63
2022/08/06 07:42:57;;;;;;;4.18;1.10;;;;;;;19.68;51.67;102720.28;5090544;28;20044;-64
2022/08/06 07:45:27;;;;;;;3.55;1.00;;;;;;;19.70;51.19;102723.72;5092151;28;20043;-63
2022/08/06 07:47:56;;;;;;;2.97;0.88;;;;;;;19.76;50.65;102728.25;5087080;28;20172;-64
2022/08/06 07:50:23;;;;;;;4.05;0.90;;;;;;;19.71;50.66;102728.22;5088014;28;20028;-64
2022/08/06 07:52:51;;;;;;;4.30;0.90;;;;;;;19.73;50.43;102731.63;5088681;28;20036;-64
2022/08/06 07:55:17;;;;;;;4.43;0.90;;;;;;;19.84;50.62;102730.56;5090751;28;20020;-65
2022/08/06 07:57:43;;;;;;;3.92;0.98;;;;;;;19.86;50.43;102721.84;5089827;28;20036;-64
2022/08/06 08:00:09;;;;;;;3.65;0.90;;;;;;;19.97;50.18;102728.44;5089079;28;20032;-64
2022/08/06 08:02:34;;;;;;;2.45;0.90;;;;;;;19.86;50.15;102733.97;5089044;28;20034;-64
2022/08/06 08:07:45;;;;;;;1.75;0.80;;;;;;;20.04;49.84;102737.47;5087630;28;20124;-63
2022/08/06 08:10:12;;;;;;;2.80;1.52;;;;;;;20.07;49.85;102740.59;5088644;28;20038;-63
2022/08/06 08:12:38;;;;;;;3.30;0.90;;;;;;;20.05;49.49;102734.41;5088244;28;20028;-63
2022/08/06 08:15:05;;;;;;;4.10;1.15;;;;;;;20.08;49.35;102736.69;5091417;28;20120;-63
2022/08/06 08:17:30;;;;;;;4.25;0.90;;;;;;;20.14;49.52;102740.38;5092703;28;20386;-62
2022/08/06 08:20:02;;;;;;;2.95;0.63;;;;;;;20.06;49.07;102740.88;5091159;28;20522;-63
2022/08/06 08:22:28;;;;;;;3.20;0.77;;;;;;;20.15;48.44;102744.03;5090946;28;20020;-63
2022/08/06 08:24:54;;;;;;;5.82;1.10;;;;;;;20.15;48.40;102733.59;5091358;28;20089;-63
2022/08/06 08:27:21;;;;;;;3.78;0.80;;;;;;;20.23;48.27;102737.88;5091719;28;20074;-63
2022/08/06 08:29:46;;;;;;;2.28;0.80;;;;;;;20.24;47.92;102740.44;5090077;28;20043;-63
2022/08/06 08:32:11;;;;;;;2.53;0.70;;;;;;;20.29;47.53;102733.97;5092480;28;20020;-64
2022/08/06 08:34:37;;;;;;;3.10;1.00;;;;;;;20.47;47.89;102741.09;5078318;28;20391;-63
2022/08/06 08:37:03;;;;;;;3.33;1.00;;;;;;;20.47;47.60;102741.94;5080302;28;20024;-63
2022/08/06 08:39:28;;;;;;;3.05;1.00;;;;;;;20.42;47.03;102743.91;5082830;28;20027;-64
2022/08/06 08:42:19;;;;;;;2.35;1.10;;;;;;;20.49;47.98;102734.13;5090782;28;20016;-63
2022/08/06 08:44:46;;;;;;;1.75;0.80;;;;;;;20.56;47.27;102737.53;5091688;28;20472;-63
2022/08/06 08:47:13;;;;;;;1.77;0.60;;;;;;;20.64;46.85;102735.31;5092038;28;20063;-63
2022/08/06 08:49:47;;;;;;;2.95;0.77;;;;;;;20.64;46.81;102730.53;5089915;28;20078;-63
2022/08/06 08:52:25;;;;;;;1.50;0.73;;;;;;;20.76;46.93;102742.41;5091064;28;20467;-63
2022/08/06 08:54:54;;;;;;;3.58;1.23;;;;;;;20.76;45.52;102742.41;5090916;28;20027;-63
2022/08/06 08:57:22;;;;;;;4.85;1.85;;;;;;;20.77;45.44;102738.47;5091447;28;20162;-63
2022/08/06 08:59:48;;;;;;;2.13;0.88;;;;;;;20.75;45.71;102748.31;5091382;28;20115;-64
2022/08/06 09:02:13;;;;;;;2.65;0.88;;;;;;;20.82;45.71;102744.13;5091143;28;20024;-64
2022/08/06 09:04:40;;;;;;;4.05;1.00;;;;;;;20.80;45.38;102749.22;5082966;28;20513;-63
2022/08/06 09:07:08;;;;;;;4.32;0.90;;;;;;;20.78;45.24;102748.63;5087900;28;20180;-63
2022/08/06 09:09:34;;;;;;;2.42;0.90;;;;;;;20.54;44.76;102742.59;5086032;28;20031;-64
2022/08/06 09:12:01;;;;;;;3.00;0.90;;;;;;;20.56;45.67;102754.47;5086086;28;20540;-63
2022/08/06 09:14:26;;;;;;;3.28;0.85;;;;;;;20.51;45.89;102754.41;5084864;28;20083;-64
2022/08/06 09:16:52;;;;;;;3.17;0.90;;;;;;;20.48;46.18;102756.94;5089120;28;20047;-64
2022/08/06 09:19:18;;;;;;;3.00;0.88;;;;;;;20.29;45.82;102760.19;5091087;28;20078;-64
2022/08/06 09:21:44;;;;;;;3.55;1.10;;;;;;;20.35;46.17;102759.09;5091296;28;20099;-64
2022/08/06 09:24:10;;;;;;;3.55;0.80;;;;;;;20.42;45.93;102756.03;5087301;28;20024;-63
2022/08/06 09:26:35;;;;;;;5.07;0.90;;;;;;;20.50;45.54;102755.53;5090210;28;20055;-64
2022/08/06 09:29:01;;;;;;;3.28;0.90;;;;;;;20.53;44.58;102762.63;5087231;28;20479;-62
2022/08/06 09:31:26;;;;;;;1.77;0.70;;;;;;;20.65;44.92;102751.97;5087413;28;20071;-62
2022/08/06 09:33:57;;;;;;;2.55;0.80;;;;;;;20.66;44.53;102759.28;5086803;28;20037;-62
2022/08/06 09:36:22;;;;;;;1.02;0.80;;;;;;;20.78;43.36;102753.41;5087801;28;20051;-61
2022/08/06 09:38:54;;;;;;;2.45;0.70;;;;;;;20.81;43.89;102753.72;5090391;28;20024;-62
2022/08/06 09:41:22;;;;;;;5.10;0.90;;;;;;;20.82;44.00;102760.22;5091020;28;20366;-63
2022/08/06 09:43:50;;;;;;;2.80;0.73;;;;;;;20.81;43.24;102765.00;5089697;28;20043;-63
2022/08/06 09:46:17;;;;;;;2.58;0.75;;;;;;;20.84;42.38;102758.81;5090150;28;20024;-64
2022/08/06 09:49:00;;;;;;;2.03;0.90;;;;;;;20.96;43.94;102767.03;5094734;28;20379;-63
2022/08/06 09:51:26;;;;;;;2.30;0.70;;;;;;;21.05;43.45;102761.69;5086570;28;20499;-64
2022/08/06 09:53:57;;;;;;;1.95;0.80;;;;;;;20.94;42.79;102765.63;5093154;28;20032;-63
2022/08/06 09:56:23;;;;;;;2.17;0.73;;;;;;;20.96;42.79;102763.38;5093867;28;20035;-64
2022/08/06 09:58:49;;;;;;;2.17;0.60;;;;;;;21.03;43.24;102752.69;5091875;28;20075;-63
2022/08/06 10:01:20;;;;;;;3.88;0.90;;;;;;;21.08;43.39;102766.81;5089983;28;20024;-61
2022/08/06 10:03:46;;;;;;;1.10;0.57;;;;;;;21.23;43.11;102766.00;5087647;28;20016;-63
2022/08/06 10:06:14;;;;;;;1.60;0.80;;;;;;;21.15;41.77;102760.91;5091277;28;20039;-63
2022/08/06 10:08:40;;;;;;;2.10;0.80;;;;;;;21.09;41.26;102760.03;5088912;28;20094;-63
2022/08/06 10:11:06;;;;;;;1.50;0.47;;;;;;;21.08;40.11;102763.97;5084326;28;20640;-59
2022/08/06 10:13:33;;;;;;;2.08;0.60;;;;;;;21.02;39.76;102763.09;5086131;28;20047;-62
2022/08/06 10:16:00;;;;;;;1.75;0.77;;;;;;;21.05;40.27;102756.91;5093436;28;20039;-63
2022/08/06 10:18:32;;;;;;;2.53;0.60;;;;;;;21.13;40.25;102751.84;5089664;28;20471;-63
2022/08/06 10:21:08;;;;;;;0.63;0.60;;;;;;;21.20;40.26;102758.91;5081099;28;20040;-63
2022/08/06 10:23:38;;;;;;;2.38;0.50;;;;;;;21.26;40.54;102752.16;5092294;28;20031;-62
2022/08/06 10:26:06;;;;;;;1.35;0.57;;;;;;;21.34;40.52;102747.97;5090159;28;20386;-62
2022/08/06 10:28:34;;;;;;;1.30;0.60;;;;;;;21.33;40.23;102747.09;5089659;28;20069;-61
2022/08/06 10:31:02;;;;;;;2.28;0.60;;;;;;;21.43;40.65;102742.63;5094059;28;20036;-62
2022/08/06 10:33:36;;;;;;;2.28;0.57;;;;;;;21.48;40.10;102745.44;5089543;28;20040;-62
2022/08/06 10:36:09;;;;;;;3.38;0.60;;;;;;;21.49;38.79;102744.31;5087229;28;20035;-62
2022/08/06 10:38:38;;;;;;;1.38;0.50;;;;;;;21.47;37.56;102746.56;5089535;28;20383;-62
2022/08/06 10:41:10;;;;;;;1.42;0.50;;;;;;;21.49;37.53;102741.47;5082672;28;20032;-62
2022/08/06 10:43:39;;;;;;;1.83;0.43;;;;;;;21.52;38.44;102738.09;5092707;28;20510;-62
2022/08/06 10:46:06;;;;;;;2.15;0.50;;;;;;;21.59;38.33;102738.66;5091039;28;20101;-62
2022/08/06 10:48:34;;;;;;;1.73;0.50;;;;;;;21.56;37.31;102733.56;5089633;28;20035;-63
2022/08/06 10:51:01;;;;;;;2.42;0.75;;;;;;;21.68;38.62;102734.13;5089718;28;20127;-63
2022/08/06 10:53:26;;;;;;;1.00;0.60;;;;;;;21.66;37.79;102722.28;5089012;28;20052;-63
2022/08/06 10:55:52;;;;;;;4.65;0.90;;;;;;;21.68;37.66;102722.00;5090071;28;20121;-63
2022/08/06 10:58:18;;;;;;;1.42;0.55;;;;;;;21.81;38.74;102727.94;5091001;28;20578;-63
2022/08/06 11:00:44;;;;;;;1.35;0.50;;;;;;;21.78;37.58;102736.97;5092825;28;20103;-62
2022/08/06 11:03:24;;;;;;;1.10;0.47;;;;;;;21.81;38.40;102729.88;5089688;28;20175;-63
2022/08/06 11:06:00;;;;;;;2.03;0.60;;;;;;;21.86;38.73;102721.44;5082429;28;20028;-63
2022/08/06 11:09:03;;;;;;;3.65;0.50;;;;;;;21.91;38.96;102723.41;5079568;28;20024;-62
2022/08/06 11:11:31;;;;;;;;;;;;;;;21.95;40.01;102716.88;5091506;28;20471;-62
2022/08/06 11:14:00;;;;;;;3.38;0.77;;;;;;;21.98;38.27;102715.47;5087299;28;19916;-62
2022/08/06 11:16:27;;;;;;;2.75;0.60;;;;;;;21.96;37.73;102724.22;5091728;28;20115;-62
2022/08/06 11:19:04;;;;;;;2.55;0.80;;;;;;;21.96;37.32;102715.75;5093212;28;20104;-63
2022/08/06 11:21:49;;;;;;;1.88;0.80;;;;;;;22.00;38.33;102716.84;5092884;28;20051;-62
2022/08/06 11:24:18;;;;;;;1.30;0.50;;;;;;;22.14;38.65;102717.16;5090721;28;20068;-63
2022/08/06 11:26:44;;;;;;;2.13;0.77;;;;;;;22.21;38.30;102714.88;5084042;28;20036;-62
2022/08/06 11:29:15;;;;;;;2.15;0.52;;;;;;;22.13;38.05;102720.25;5087752;28;20078;-62
2022/08/06 11:31:49;;;;;;;1.87;0.80;;;;;;;22.17;38.01;102718.59;5086960;28;20090;-63
2022/08/06 11:34:20;;;;;;;1.50;0.80;;;;;;;22.21;37.90;102714.88;5088107;28;20368;-63
2022/08/06 11:36:56;;;;;;;2.90;0.63;;;;;;;22.20;37.60;102709.50;5082890;28;20024;-63